createdAt,value
2023-01-09T05:15:17.063Z,6.97
2023-01-09T05:16:17.105Z,6.94
2023-01-09T05:17:17.039Z,6.94
2023-01-09T05:18:17.021Z,6.91
2023-01-09T05:19:17.031Z,6.90
2023-01-09T05:20:17.012Z,6.87
2023-01-09T05:21:16.984Z,6.87
2023-01-09T05:22:16.964Z,6.86
2023-01-09T05:23:16.952Z,6.86
2023-01-09T05:24:16.962Z,6.83
2023-01-09T05:25:16.923Z,6.81
2023-01-09T05:26:16.907Z,6.80
2023-01-09T05:27:16.896Z,6.77
2023-01-09T05:28:16.891Z,6.76
2023-01-09T05:29:16.882Z,6.72
2023-01-09T05:30:18.382Z,6.68
2023-01-09T05:31:16.863Z,6.68
2023-01-09T05:32:16.839Z,6.69
2023-01-09T05:33:16.831Z,6.66
2023-01-09T05:34:16.821Z,6.71
2023-01-09T05:35:16.794Z,6.69
2023-01-09T05:36:16.780Z,6.69
2023-01-09T05:37:16.773Z,6.71
2023-01-09T05:38:16.751Z,6.71
2023-01-09T05:39:16.760Z,6.72
2023-01-09T05:40:16.724Z,6.76
2023-01-09T05:41:16.707Z,6.77
2023-01-09T05:42:16.707Z,6.79
2023-01-09T05:43:16.695Z,6.77
2023-01-09T05:44:16.690Z,6.73
2023-01-09T05:45:16.659Z,6.73
2023-01-09T05:46:16.649Z,6.72
2023-01-09T05:47:16.641Z,6.76
2023-01-09T05:48:16.619Z,6.79
2023-01-09T05:49:16.656Z,6.77
2023-01-09T05:50:16.608Z,6.79
2023-01-09T05:51:16.601Z,6.80
2023-01-09T05:52:16.572Z,6.79
2023-01-09T05:53:16.582Z,6.81
2023-01-09T05:54:16.557Z,6.84
2023-01-09T05:55:16.581Z,6.86
2023-01-09T05:56:16.540Z,6.84
2023-01-09T05:57:16.508Z,6.86
2023-01-09T05:58:16.507Z,6.86
2023-01-09T05:59:16.509Z,6.84
2023-01-09T06:00:16.499Z,6.86
2023-01-09T06:01:16.503Z,6.87
2023-01-09T06:02:16.600Z,6.89
2023-01-09T06:03:16.498Z,6.90
2023-01-09T06:04:16.418Z,6.89
2023-01-09T06:05:16.445Z,6.87
2023-01-09T06:06:16.395Z,6.87
2023-01-09T06:07:20.333Z,6.87
2023-01-09T06:08:17.364Z,6.89
2023-01-09T06:09:16.383Z,6.89
2023-01-09T06:10:16.387Z,6.87
2023-01-09T06:11:16.368Z,6.89
2023-01-09T06:12:16.313Z,6.90
2023-01-09T06:13:16.318Z,6.90
2023-01-09T06:14:16.282Z,6.90
2023-01-09T06:15:16.281Z,6.89
2023-01-09T06:16:16.343Z,6.90
2023-01-09T06:17:16.275Z,6.89
2023-01-09T06:18:16.244Z,6.86
2023-01-09T06:19:16.250Z,6.87
2023-01-09T06:20:16.217Z,6.87
2023-01-09T06:21:16.206Z,6.84
2023-01-09T06:22:16.172Z,6.84
2023-01-09T06:23:16.166Z,6.84
2023-01-09T06:24:16.145Z,6.84
2023-01-09T06:25:16.143Z,6.81
2023-01-09T06:26:16.130Z,6.79
2023-01-09T06:27:16.185Z,6.79
2023-01-09T06:28:16.133Z,6.79
2023-01-09T06:29:16.083Z,6.77
2023-01-09T06:30:16.091Z,6.80
2023-01-09T06:31:16.151Z,6.81
2023-01-09T06:32:16.075Z,6.81
2023-01-09T06:33:16.040Z,6.81
2023-01-09T06:34:16.011Z,6.81
2023-01-09T06:35:16.023Z,6.86
2023-01-09T06:36:15.988Z,6.87
2023-01-09T06:37:15.982Z,6.86
2023-01-09T06:38:15.963Z,6.89
2023-01-09T06:39:15.950Z,6.89
2023-01-09T06:40:15.960Z,6.89
2023-01-09T06:41:15.940Z,6.90
2023-01-09T06:42:15.910Z,6.91
2023-01-09T06:43:15.901Z,6.91
2023-01-09T06:44:15.880Z,6.91
2023-01-09T06:45:15.894Z,6.91
2023-01-09T06:46:15.887Z,6.94
2023-01-09T06:47:15.849Z,6.94
2023-01-09T06:48:15.855Z,6.97
2023-01-09T06:49:15.818Z,6.98
2023-01-09T06:50:15.823Z,6.99
2023-01-09T06:51:15.811Z,6.98
2023-01-09T06:52:15.777Z,6.97
2023-01-09T06:53:15.769Z,6.95
2023-01-09T06:54:15.758Z,6.94
2023-01-09T06:55:15.768Z,6.97
2023-01-09T06:56:15.718Z,6.97
2023-01-09T06:57:15.715Z,6.95
2023-01-09T06:58:15.701Z,6.97
2023-01-09T06:59:15.687Z,6.94
2023-01-09T07:00:15.710Z,6.91
2023-01-09T07:01:15.752Z,6.90
2023-01-09T07:02:15.664Z,6.90
2023-01-09T07:03:15.636Z,6.91
2023-01-09T07:04:15.678Z,6.90
2023-01-09T07:05:15.629Z,6.90
2023-01-09T07:06:15.597Z,6.90
2023-01-09T07:07:15.587Z,6.91
2023-01-09T07:08:15.570Z,6.91
2023-01-09T07:09:15.559Z,6.90
2023-01-09T07:10:15.560Z,6.90
2023-01-09T07:11:15.535Z,6.90
2023-01-09T07:12:15.514Z,6.90
2023-01-09T07:13:15.515Z,6.91
2023-01-09T07:14:15.487Z,6.91
2023-01-09T07:15:15.475Z,6.89
2023-01-09T07:16:15.506Z,6.89
2023-01-09T07:17:15.458Z,6.87
2023-01-09T07:18:15.439Z,6.86
2023-01-09T07:19:15.424Z,6.87
2023-01-09T07:20:15.420Z,6.84
2023-01-09T07:21:15.414Z,6.83
2023-01-09T07:22:15.386Z,6.80
2023-01-09T07:23:15.404Z,6.79
2023-01-09T07:24:22.410Z,6.79
2023-01-09T07:25:15.347Z,6.79
2023-01-09T07:26:15.340Z,6.79
2023-01-09T07:27:15.319Z,6.84
2023-01-09T07:28:15.308Z,6.86
2023-01-09T07:29:15.301Z,6.86
2023-01-09T07:30:15.278Z,6.86
2023-01-09T07:31:15.303Z,6.83
2023-01-09T07:32:15.249Z,6.87
2023-01-09T07:33:15.244Z,6.90
2023-01-09T07:34:15.235Z,6.91
2023-01-09T07:35:15.215Z,6.95
2023-01-09T07:36:15.207Z,6.97
2023-01-09T07:37:15.191Z,6.94
2023-01-09T07:38:15.176Z,6.90
2023-01-09T07:39:15.169Z,6.86
2023-01-09T07:40:15.149Z,6.83
2023-01-09T07:41:15.146Z,6.81
2023-01-09T07:42:15.130Z,6.80
2023-01-09T07:43:15.107Z,6.80
2023-01-09T07:44:15.097Z,6.81
2023-01-09T07:45:15.088Z,6.79
2023-01-09T07:46:15.125Z,6.79
2023-01-09T07:47:15.056Z,6.77
2023-01-09T07:48:15.045Z,6.80
2023-01-09T07:49:15.033Z,6.80
2023-01-09T07:50:15.018Z,6.80
2023-01-09T07:51:15.015Z,6.79
2023-01-09T07:52:14.994Z,6.79
2023-01-09T07:53:15.002Z,6.80
2023-01-09T07:54:14.974Z,6.81
2023-01-09T07:55:16.727Z,6.80
2023-01-09T07:56:14.955Z,6.81
2023-01-09T07:57:14.925Z,6.83
2023-01-09T07:58:14.911Z,6.84
2023-01-09T07:59:14.894Z,6.83
2023-01-09T08:00:14.899Z,6.83
2023-01-09T08:01:15.009Z,6.86
2023-01-09T08:02:14.915Z,6.89
2023-01-09T08:03:14.895Z,6.89
2023-01-09T08:04:14.832Z,6.90
2023-01-09T08:05:14.901Z,6.91
2023-01-09T08:06:14.830Z,6.91
2023-01-09T08:07:14.813Z,6.91
2023-01-09T08:08:14.799Z,6.90
2023-01-09T08:09:14.779Z,6.91
2023-01-09T08:10:14.791Z,6.95
2023-01-09T08:11:14.785Z,6.95
2023-01-09T08:12:14.732Z,6.97
2023-01-09T08:13:14.751Z,6.98
2023-01-09T08:14:14.704Z,6.99
2023-01-09T08:15:14.695Z,6.99
2023-01-09T08:16:14.717Z,7.02
2023-01-09T08:17:14.662Z,7.07
2023-01-09T08:18:14.652Z,7.09
2023-01-09T08:19:14.631Z,7.15
2023-01-09T08:20:14.634Z,7.16
2023-01-09T08:21:14.660Z,7.19
2023-01-09T08:22:14.600Z,7.17
2023-01-09T08:23:14.592Z,7.22
2023-01-09T08:24:14.585Z,7.24
2023-01-09T08:25:14.558Z,7.27
2023-01-09T08:26:14.560Z,7.29
2023-01-09T08:27:14.530Z,7.32
2023-01-09T08:28:14.521Z,7.34
2023-01-09T08:29:14.509Z,7.38
2023-01-09T08:30:14.489Z,7.38
2023-01-09T08:31:14.519Z,7.38
2023-01-09T08:32:14.477Z,7.40
2023-01-09T08:33:14.455Z,7.41
2023-01-09T08:34:14.444Z,7.40
2023-01-09T08:35:14.428Z,7.44
2023-01-09T08:36:14.477Z,7.45
2023-01-09T08:37:14.412Z,7.49
2023-01-09T08:38:14.388Z,7.47
2023-01-09T08:39:14.368Z,7.50
2023-01-09T08:40:14.359Z,7.53
2023-01-09T08:41:14.350Z,7.53
2023-01-09T08:42:14.350Z,7.55
2023-01-09T08:43:14.318Z,7.56
2023-01-09T08:44:14.312Z,7.56
2023-01-09T08:45:14.987Z,7.58
2023-01-09T08:46:14.289Z,7.59
2023-01-09T08:47:14.291Z,7.56
2023-01-09T08:48:14.267Z,7.59
2023-01-09T08:49:14.237Z,7.62
2023-01-09T08:50:14.230Z,7.66
2023-01-09T08:51:14.219Z,7.63
2023-01-09T08:52:14.223Z,7.63
2023-01-09T08:53:14.184Z,7.63
2023-01-09T08:54:14.184Z,7.62
2023-01-09T08:55:14.156Z,7.62
2023-01-09T08:56:14.156Z,7.66
2023-01-09T08:57:14.147Z,7.63
2023-01-09T08:58:14.135Z,7.62
2023-01-09T08:59:14.106Z,7.62
2023-01-09T09:00:14.111Z,7.62
2023-01-09T09:01:14.114Z,7.63
2023-01-09T09:02:14.085Z,7.63
2023-01-09T09:03:14.055Z,7.63
2023-01-09T09:04:14.045Z,7.66
2023-01-09T09:05:14.025Z,7.67
2023-01-09T09:06:14.027Z,7.71
2023-01-09T09:07:14.021Z,7.67
2023-01-09T09:08:14.004Z,7.69
2023-01-09T09:09:13.978Z,7.74
2023-01-09T09:10:13.971Z,7.74
2023-01-09T09:11:13.945Z,7.77
2023-01-09T09:12:13.942Z,7.78
2023-01-09T09:13:13.944Z,7.77
2023-01-09T09:14:13.910Z,7.77
2023-01-09T09:15:13.900Z,7.78
2023-01-09T09:16:13.926Z,7.77
2023-01-09T09:17:13.904Z,7.74
2023-01-09T09:18:13.871Z,7.71
2023-01-09T09:19:13.844Z,7.67
2023-01-09T09:20:13.837Z,7.66
2023-01-09T09:21:13.860Z,7.67
2023-01-09T09:22:13.812Z,7.66
2023-01-09T09:23:13.801Z,7.66
2023-01-09T09:24:13.781Z,7.66
2023-01-09T09:25:13.762Z,7.67
2023-01-09T09:26:13.754Z,7.69
2023-01-09T09:27:13.753Z,7.72
2023-01-09T09:28:13.804Z,7.72
2023-01-09T09:29:13.720Z,7.69
2023-01-09T09:30:13.700Z,7.67
2023-01-09T09:31:13.701Z,7.66
2023-01-09T09:32:13.680Z,7.67
2023-01-09T09:33:13.674Z,7.66
2023-01-09T09:34:13.660Z,7.63
2023-01-09T09:35:13.647Z,7.66
2023-01-09T09:36:13.631Z,7.71
2023-01-09T09:37:13.624Z,7.69
2023-01-09T09:38:13.618Z,7.66
2023-01-09T09:39:13.590Z,7.63
2023-01-09T09:40:18.746Z,7.60
2023-01-09T09:41:14.551Z,7.59
2023-01-09T09:42:13.538Z,7.56
2023-01-09T09:43:13.539Z,7.56
2023-01-09T09:44:13.519Z,7.56
2023-01-09T09:45:13.504Z,7.59
2023-01-09T09:46:13.561Z,7.58
2023-01-09T09:47:13.478Z,7.56
2023-01-09T09:48:13.477Z,7.59
2023-01-09T09:49:13.481Z,7.59
2023-01-09T09:50:13.450Z,7.62
2023-01-09T09:51:13.435Z,7.63
2023-01-09T09:52:13.417Z,7.67
2023-01-09T09:53:13.408Z,7.67
2023-01-09T09:54:14.120Z,7.67
2023-01-09T09:55:13.378Z,7.67
2023-01-09T09:56:13.369Z,7.63
2023-01-09T09:57:13.349Z,7.66
2023-01-09T09:58:13.347Z,7.62
2023-01-09T09:59:13.325Z,7.63
2023-01-09T10:00:13.310Z,7.67
2023-01-09T10:01:13.297Z,7.67
2023-01-09T10:02:13.385Z,7.63
2023-01-09T10:03:16.495Z,7.63
2023-01-09T10:04:14.254Z,7.63
2023-01-09T10:05:13.244Z,7.62
2023-01-09T10:06:13.239Z,7.63
2023-01-09T10:07:13.215Z,7.60
2023-01-09T10:08:16.076Z,7.59
2023-01-09T10:09:13.188Z,7.60
2023-01-09T10:10:13.191Z,7.63
2023-01-09T10:11:13.154Z,7.63
2023-01-09T10:12:13.154Z,7.60
2023-01-09T10:13:13.144Z,7.58
2023-01-09T10:14:23.428Z,7.59
2023-01-09T10:15:14.110Z,7.58
2023-01-09T10:16:13.154Z,7.55
2023-01-09T10:17:13.085Z,7.53
2023-01-09T10:18:13.102Z,7.52
2023-01-09T10:19:13.060Z,7.50
2023-01-09T10:20:13.044Z,7.50
2023-01-09T10:21:13.031Z,7.49
2023-01-09T10:22:13.026Z,7.49
2023-01-09T10:23:13.025Z,7.49
2023-01-09T10:24:13.020Z,7.49
2023-01-09T10:25:12.983Z,7.45
2023-01-09T10:26:12.968Z,7.45
2023-01-09T10:27:12.962Z,7.45
2023-01-09T10:28:12.969Z,7.45
2023-01-09T10:29:12.945Z,7.41
2023-01-09T10:30:12.921Z,7.38
2023-01-09T10:31:12.940Z,7.40
2023-01-09T10:32:12.886Z,7.41
2023-01-09T10:33:12.883Z,7.40
2023-01-09T10:34:12.911Z,7.38
2023-01-09T10:35:12.854Z,7.38
2023-01-09T10:36:12.835Z,7.38
2023-01-09T10:37:12.829Z,7.38
2023-01-09T10:38:12.811Z,7.41
2023-01-09T10:39:12.809Z,7.40
2023-01-09T10:40:12.791Z,7.38
2023-01-09T10:41:12.771Z,7.38
2023-01-09T10:42:12.761Z,7.38
2023-01-09T10:43:12.748Z,7.40
2023-01-09T10:44:12.748Z,7.40
2023-01-09T10:45:12.726Z,7.37
2023-01-09T10:46:12.730Z,7.35
2023-01-09T10:47:12.690Z,7.37
2023-01-09T10:48:12.677Z,7.34
2023-01-09T10:49:12.682Z,7.34
2023-01-09T10:50:12.648Z,7.37
2023-01-09T10:51:12.641Z,7.38
2023-01-09T10:52:14.772Z,7.38
2023-01-09T10:53:12.616Z,7.37
2023-01-09T10:54:12.612Z,7.40
2023-01-09T10:55:12.589Z,7.38
2023-01-09T10:56:12.644Z,7.38
2023-01-09T10:57:12.567Z,7.42
2023-01-09T10:58:12.555Z,7.45
2023-01-09T10:59:12.577Z,7.47
2023-01-09T11:00:12.536Z,7.49
2023-01-09T11:01:12.515Z,7.49
2023-01-09T11:02:12.514Z,7.50
2023-01-09T11:03:12.520Z,7.53
2023-01-09T11:04:12.488Z,7.55
2023-01-09T11:05:12.456Z,7.56
2023-01-09T11:06:12.460Z,7.56
2023-01-09T11:07:12.436Z,7.58
2023-01-09T11:08:12.425Z,7.60
2023-01-09T11:09:12.416Z,7.62
2023-01-09T11:10:12.386Z,7.62
2023-01-09T11:11:12.377Z,7.62
2023-01-09T11:12:12.357Z,7.66
2023-01-09T11:13:12.360Z,7.69
2023-01-09T11:14:12.349Z,7.71
2023-01-09T11:15:12.324Z,7.67
2023-01-09T11:16:12.395Z,7.67
2023-01-09T11:17:12.302Z,7.66
2023-01-09T11:18:12.274Z,7.66
2023-01-09T11:19:12.284Z,7.63
2023-01-09T11:20:13.563Z,7.63
2023-01-09T11:21:12.253Z,7.66
2023-01-09T11:22:12.233Z,7.69
2023-01-09T11:23:12.229Z,7.69
2023-01-09T11:24:12.231Z,7.69
2023-01-09T11:25:12.213Z,7.71
2023-01-09T11:26:12.185Z,7.71
2023-01-09T11:27:12.181Z,7.69
2023-01-09T11:28:12.162Z,7.75
2023-01-09T11:29:12.154Z,7.81
2023-01-09T11:30:12.123Z,7.84
2023-01-09T11:31:12.163Z,7.89
2023-01-09T11:32:12.094Z,7.87
2023-01-09T11:33:12.094Z,7.89
2023-01-09T11:34:12.081Z,7.89
2023-01-09T11:35:12.072Z,7.94
2023-01-09T11:36:12.091Z,8.00
2023-01-09T11:37:12.044Z,8.07
2023-01-09T11:38:12.031Z,8.14
2023-01-09T11:39:12.016Z,8.22
2023-01-09T11:40:12.011Z,8.26
2023-01-09T11:41:11.981Z,8.25
2023-01-09T11:42:11.961Z,8.21
2023-01-09T11:43:11.970Z,8.21
2023-01-09T11:44:11.941Z,8.21
2023-01-09T11:45:11.950Z,8.20
2023-01-09T11:46:11.918Z,8.18
2023-01-09T11:47:11.973Z,8.20
2023-01-09T11:48:11.890Z,8.20
2023-01-09T11:49:11.878Z,8.22
2023-01-09T11:50:11.880Z,8.21
2023-01-09T11:51:11.860Z,8.22
2023-01-09T11:52:11.830Z,8.25
2023-01-09T11:53:11.828Z,8.25
2023-01-09T11:54:11.811Z,8.25
2023-01-09T11:55:11.809Z,8.28
2023-01-09T11:56:11.802Z,8.26
2023-01-09T11:57:11.782Z,8.28
2023-01-09T11:58:11.767Z,8.32
2023-01-09T11:59:11.758Z,8.30
2023-01-09T12:00:11.738Z,8.29
2023-01-09T12:01:11.725Z,8.29
2023-01-09T12:02:11.749Z,8.29
2023-01-09T12:03:11.720Z,8.28
2023-01-09T12:04:11.679Z,8.25
2023-01-09T12:05:11.691Z,8.22
2023-01-09T12:06:11.651Z,8.20
2023-01-09T12:07:11.641Z,8.21
2023-01-09T12:08:11.631Z,8.21
2023-01-09T12:09:11.701Z,8.21
2023-01-09T12:10:11.685Z,8.25
2023-01-09T12:11:11.587Z,8.28
2023-01-09T12:12:11.576Z,8.29
2023-01-09T12:13:11.567Z,8.25
2023-01-09T12:14:11.551Z,8.29
2023-01-09T12:15:11.538Z,8.35
2023-01-09T12:16:11.639Z,8.40
2023-01-09T12:17:11.533Z,8.48
2023-01-09T12:18:11.499Z,8.50
2023-01-09T12:19:11.475Z,8.50
2023-01-09T12:20:11.478Z,8.48
2023-01-09T12:21:11.460Z,8.47
2023-01-09T12:22:11.465Z,8.45
2023-01-09T12:23:11.433Z,8.39
2023-01-09T12:24:11.415Z,8.40
2023-01-09T12:25:11.416Z,8.37
2023-01-09T12:26:11.403Z,8.36
2023-01-09T12:27:11.388Z,8.37
2023-01-09T12:28:11.377Z,8.35
2023-01-09T12:29:11.346Z,8.32
2023-01-09T12:30:11.334Z,8.28
2023-01-09T12:31:11.351Z,8.29
2023-01-09T12:32:11.345Z,8.30
2023-01-09T12:33:11.295Z,8.29
2023-01-09T12:34:11.284Z,8.28
2023-01-09T12:35:11.274Z,8.26
2023-01-09T12:36:11.269Z,8.28
2023-01-09T12:37:11.767Z,8.25
2023-01-09T12:38:11.233Z,8.26
2023-01-09T12:39:11.217Z,8.25
2023-01-09T12:40:11.205Z,8.25
2023-01-09T12:41:11.193Z,8.28
2023-01-09T12:42:11.193Z,8.26
2023-01-09T12:43:11.162Z,8.26
2023-01-09T12:44:11.172Z,8.28
2023-01-09T12:45:11.143Z,8.28
2023-01-09T12:46:11.131Z,8.26
2023-01-09T12:47:11.134Z,8.25
2023-01-09T12:48:11.115Z,8.25
2023-01-09T12:49:11.096Z,8.25
2023-01-09T12:50:11.075Z,8.25
2023-01-09T12:51:11.071Z,8.25
2023-01-09T12:52:11.076Z,8.22
2023-01-09T12:53:11.040Z,8.21
2023-01-09T12:54:11.026Z,8.21
2023-01-09T12:55:11.000Z,8.25
2023-01-09T12:56:11.009Z,8.26
2023-01-09T12:57:10.972Z,8.28
2023-01-09T12:58:10.984Z,8.30
2023-01-09T12:59:10.948Z,8.33
2023-01-09T13:00:10.956Z,8.35
2023-01-09T13:01:10.966Z,8.33
2023-01-09T13:02:10.964Z,8.33
2023-01-09T13:03:12.760Z,8.32
2023-01-09T13:04:10.896Z,8.33
2023-01-09T13:05:10.883Z,8.33
2023-01-09T13:06:10.880Z,8.35
2023-01-09T13:07:10.863Z,8.36
2023-01-09T13:08:10.852Z,8.37
2023-01-09T13:09:10.833Z,8.37
2023-01-09T13:10:10.819Z,8.40
2023-01-09T13:11:20.071Z,8.44
2023-01-09T13:12:11.779Z,8.47
2023-01-09T13:13:10.804Z,8.50
2023-01-09T13:14:10.776Z,8.48
2023-01-09T13:15:10.748Z,8.47
2023-01-09T13:16:10.751Z,8.42
2023-01-09T13:17:10.718Z,8.42
2023-01-09T13:18:10.731Z,8.40
2023-01-09T13:19:10.696Z,8.39
2023-01-09T13:20:10.675Z,8.39
2023-01-09T13:21:10.656Z,8.39
2023-01-09T13:22:11.975Z,8.40
2023-01-09T13:23:10.657Z,8.39
2023-01-09T13:24:10.645Z,8.39
2023-01-09T13:25:10.615Z,8.37
2023-01-09T13:26:10.598Z,8.36
2023-01-09T13:27:10.594Z,8.33
2023-01-09T13:28:10.575Z,8.28
2023-01-09T13:29:10.568Z,8.25
2023-01-09T13:30:10.545Z,8.22
2023-01-09T13:31:10.545Z,8.21
2023-01-09T13:32:10.547Z,8.15
2023-01-09T13:33:10.527Z,8.12
2023-01-09T13:34:17.722Z,8.14
2023-01-09T13:35:11.486Z,8.11
2023-01-09T13:36:10.464Z,8.10
2023-01-09T13:37:10.504Z,8.07
2023-01-09T13:38:10.482Z,8.08
2023-01-09T13:39:10.432Z,8.10
2023-01-09T13:40:10.415Z,8.14
2023-01-09T13:41:10.407Z,8.12
2023-01-09T13:42:10.410Z,8.17
2023-01-09T13:43:10.402Z,8.18
2023-01-09T13:44:10.365Z,8.18
2023-01-09T13:45:10.383Z,8.15
2023-01-09T13:46:10.397Z,8.15
2023-01-09T13:47:10.335Z,8.18
2023-01-09T13:48:10.321Z,8.17
2023-01-09T13:49:10.303Z,8.18
2023-01-09T13:50:10.285Z,8.21
2023-01-09T13:51:10.297Z,8.21
2023-01-09T13:52:10.263Z,8.22
2023-01-09T13:53:10.295Z,8.25
2023-01-09T13:54:10.223Z,8.25
2023-01-09T13:55:10.229Z,8.22
2023-01-09T13:56:10.201Z,8.20
2023-01-09T13:57:10.193Z,8.20
2023-01-09T13:58:10.254Z,8.21
2023-01-09T13:59:10.172Z,8.20
2023-01-09T14:00:10.182Z,8.18
2023-01-09T14:01:10.190Z,8.17
2023-01-09T14:02:10.172Z,8.18
2023-01-09T14:03:10.131Z,8.18
2023-01-09T14:04:10.089Z,8.17
2023-01-09T14:05:10.089Z,8.15
2023-01-09T14:06:10.075Z,8.18
2023-01-09T14:07:10.061Z,8.21
2023-01-09T14:08:10.078Z,8.21
2023-01-09T14:09:10.041Z,8.22
2023-01-09T14:10:10.041Z,8.22
2023-01-09T14:11:10.092Z,8.25
2023-01-09T14:12:09.991Z,8.22
2023-01-09T14:13:10.009Z,8.21
2023-01-09T14:14:09.979Z,8.20
2023-01-09T14:15:09.964Z,8.18
2023-01-09T14:16:10.034Z,8.15
2023-01-09T14:17:09.937Z,8.14
2023-01-09T14:18:09.918Z,8.12
2023-01-09T14:19:09.929Z,8.12
2023-01-09T14:20:09.889Z,8.15
2023-01-09T14:21:09.907Z,8.12
2023-01-09T14:22:09.858Z,8.12
2023-01-09T14:24:10.889Z,8.14
2023-01-09T14:25:09.837Z,8.14
2023-01-09T14:26:09.842Z,8.15
2023-01-09T14:27:09.809Z,8.15
2023-01-09T14:28:09.783Z,8.11
2023-01-09T14:29:09.787Z,8.12
2023-01-09T14:30:09.780Z,8.12
2023-01-09T14:31:09.753Z,8.12
2023-01-09T14:32:09.734Z,8.11
2023-01-09T14:33:09.768Z,8.08
2023-01-09T14:34:23.322Z,8.07
2023-01-09T14:35:10.687Z,8.04
2023-01-09T14:36:09.675Z,8.04
2023-01-09T14:37:09.764Z,8.02
2023-01-09T14:38:09.646Z,8.03
2023-01-09T14:39:09.644Z,8.03
2023-01-09T14:40:09.637Z,8.02
2023-01-09T14:41:09.620Z,8.02
2023-01-09T14:42:09.596Z,8.03
2023-01-09T14:43:09.587Z,8.04
2023-01-09T14:44:09.596Z,8.04
2023-01-09T14:45:09.565Z,8.02
2023-01-09T14:46:09.629Z,8.00
2023-01-09T14:47:09.561Z,8.00
2023-01-09T14:48:09.536Z,8.02
2023-01-09T14:49:09.528Z,8.00
2023-01-09T14:50:09.592Z,8.00
2023-01-09T14:51:16.559Z,8.02
2023-01-09T14:52:09.501Z,8.00
2023-01-09T14:53:09.472Z,8.00
2023-01-09T14:54:09.465Z,7.99
2023-01-09T14:55:09.447Z,8.00
2023-01-09T14:56:09.427Z,8.00
2023-01-09T14:57:09.404Z,7.97
2023-01-09T14:58:09.389Z,7.94
2023-01-09T14:59:09.393Z,7.93
2023-01-09T15:00:09.434Z,7.92
2023-01-09T15:01:09.417Z,7.90
2023-01-09T15:02:09.421Z,7.89
2023-01-09T15:03:09.327Z,7.90
2023-01-09T15:04:09.333Z,7.89
2023-01-09T15:05:09.379Z,7.89
2023-01-09T15:06:09.285Z,7.87
2023-01-09T15:07:09.274Z,7.84
2023-01-09T15:08:09.255Z,7.82
2023-01-09T15:09:09.288Z,7.78
2023-01-09T15:10:09.332Z,7.78
2023-01-09T15:11:09.215Z,7.78
2023-01-09T15:12:09.214Z,7.75
2023-01-09T15:13:09.203Z,7.74
2023-01-09T15:14:09.287Z,7.66
2023-01-09T15:15:09.188Z,7.45
2023-01-09T15:16:09.198Z,7.45
2023-01-09T15:17:09.143Z,7.42
2023-01-09T15:18:09.122Z,7.31
2023-01-09T15:19:09.111Z,7.26
2023-01-09T15:20:09.139Z,7.20
2023-01-09T15:21:09.111Z,7.19
2023-01-09T15:22:09.116Z,7.13
2023-01-09T15:23:09.061Z,7.07
2023-01-09T15:24:09.050Z,7.01
2023-01-09T15:25:09.101Z,6.95
2023-01-09T15:26:09.039Z,6.94
2023-01-09T15:27:09.012Z,6.89
2023-01-09T15:28:08.999Z,6.89
2023-01-09T15:29:08.981Z,6.51
2023-01-09T15:30:09.699Z,6.21
2023-01-09T15:31:08.985Z,5.95
2023-01-09T15:32:08.971Z,5.78
2023-01-09T15:33:08.939Z,5.73
2023-01-09T15:34:08.909Z,5.74
2023-01-09T15:35:08.937Z,5.73
2023-01-09T15:36:08.925Z,5.78
2023-01-09T15:37:08.918Z,5.81
2023-01-09T15:38:08.861Z,5.81
2023-01-09T15:39:08.851Z,5.83
2023-01-09T15:40:08.848Z,5.83
2023-01-09T15:41:08.866Z,5.85
2023-01-09T15:42:08.835Z,5.91
2023-01-09T15:43:08.806Z,5.92
2023-01-09T15:44:08.787Z,5.92
2023-01-09T15:45:08.785Z,5.93
2023-01-09T15:46:08.822Z,5.95
2023-01-09T15:47:08.776Z,5.98
2023-01-09T15:48:08.769Z,6.00
2023-01-09T15:49:08.733Z,6.03
2023-01-09T15:50:08.745Z,6.03
2023-01-09T15:51:08.704Z,6.03
2023-01-09T15:52:08.707Z,6.00
2023-01-09T15:53:08.666Z,6.07
2023-01-09T15:54:08.657Z,6.10
2023-01-09T15:55:08.659Z,6.11
2023-01-09T15:56:08.692Z,6.13
2023-01-09T15:57:08.622Z,6.16
2023-01-09T15:58:08.620Z,6.18
2023-01-09T15:59:08.586Z,6.16
2023-01-09T16:00:08.584Z,6.13
2023-01-09T16:01:08.583Z,6.16
2023-01-09T16:02:08.581Z,6.19
2023-01-09T16:03:08.539Z,6.18
2023-01-09T16:04:08.541Z,6.16
2023-01-09T16:05:08.530Z,6.14
2023-01-09T16:06:08.572Z,6.14
2023-01-09T16:07:08.494Z,6.18
2023-01-09T16:08:08.472Z,6.22
2023-01-09T16:09:08.527Z,6.22
2023-01-09T16:10:08.473Z,6.22
2023-01-09T16:11:10.665Z,6.25
2023-01-09T16:12:08.415Z,6.25
2023-01-09T16:13:08.402Z,6.28
2023-01-09T16:14:08.394Z,6.30
2023-01-09T16:15:08.381Z,6.35
2023-01-09T16:16:08.493Z,6.38
2023-01-09T16:17:08.354Z,6.43
2023-01-09T16:18:08.333Z,6.44
2023-01-09T16:19:08.333Z,6.44
2023-01-09T16:20:08.309Z,6.46
2023-01-09T16:21:08.312Z,6.47
2023-01-09T16:22:08.276Z,6.46
2023-01-09T16:23:08.261Z,6.47
2023-01-09T16:24:08.264Z,6.48
2023-01-09T16:25:08.240Z,6.50
2023-01-09T16:26:08.258Z,6.51
2023-01-09T16:27:08.230Z,6.51
2023-01-09T16:28:08.559Z,6.53
2023-01-09T16:29:08.178Z,6.53
2023-01-09T16:30:08.170Z,6.56
2023-01-09T16:31:08.247Z,6.59
2023-01-09T16:32:08.181Z,6.61
2023-01-09T16:33:08.136Z,6.62
2023-01-09T16:34:08.129Z,6.65
2023-01-09T16:35:08.135Z,6.66
2023-01-09T16:36:08.178Z,6.69
2023-01-09T16:37:08.163Z,6.71
2023-01-09T16:38:08.068Z,6.73
2023-01-09T16:39:08.052Z,6.73
2023-01-09T16:40:08.057Z,6.76
2023-01-09T16:41:08.040Z,6.79
2023-01-09T16:42:08.021Z,6.80
2023-01-09T16:43:08.008Z,6.81
2023-01-09T16:44:08.018Z,6.80
2023-01-09T16:45:07.986Z,6.83
2023-01-09T16:46:08.113Z,6.83
2023-01-09T16:47:09.209Z,6.81
2023-01-09T16:48:07.945Z,6.80
2023-01-09T16:49:07.917Z,6.84
2023-01-09T16:50:07.916Z,6.84
2023-01-09T16:51:07.919Z,6.84
2023-01-09T16:52:07.874Z,6.87
2023-01-09T16:53:07.879Z,6.89
2023-01-09T16:54:07.854Z,6.89
2023-01-09T16:55:07.848Z,6.87
2023-01-09T16:56:07.844Z,6.87
2023-01-09T16:57:07.813Z,6.86
2023-01-09T16:58:07.810Z,6.86
2023-01-09T16:59:07.786Z,6.89
2023-01-09T17:00:07.776Z,6.87
2023-01-09T17:01:07.897Z,6.89
2023-01-09T17:02:07.784Z,6.89
2023-01-09T17:03:07.751Z,6.89
2023-01-09T17:04:07.742Z,6.90
2023-01-09T17:05:07.732Z,6.90
2023-01-09T17:06:07.723Z,6.90
2023-01-09T17:07:07.678Z,6.91
2023-01-09T17:08:07.682Z,6.94
2023-01-09T17:09:07.652Z,6.95
2023-01-09T17:10:07.660Z,6.95
2023-01-09T17:11:07.638Z,6.95
2023-01-09T17:12:07.638Z,6.94
2023-01-09T17:13:07.599Z,6.94
2023-01-09T17:14:07.596Z,6.91
2023-01-09T17:15:07.581Z,6.94
2023-01-09T17:16:07.798Z,6.91
2023-01-09T17:17:07.541Z,6.94
2023-01-09T17:18:07.540Z,6.95
2023-01-09T17:19:07.522Z,6.95
2023-01-09T17:20:07.530Z,6.98
2023-01-09T17:21:07.510Z,6.99
2023-01-09T17:22:07.501Z,7.01
2023-01-09T17:23:07.481Z,7.02
2023-01-09T17:24:07.465Z,7.01
2023-01-09T17:25:08.903Z,7.01
2023-01-09T17:26:07.464Z,7.01
2023-01-09T17:27:07.430Z,6.98
2023-01-09T17:28:07.409Z,6.95
2023-01-09T17:29:07.399Z,6.95
2023-01-09T17:30:18.423Z,6.94
2023-01-09T17:31:08.389Z,6.91
2023-01-09T17:32:07.474Z,6.94
2023-01-09T17:33:07.340Z,6.91
2023-01-09T17:34:07.328Z,6.91
2023-01-09T17:35:07.320Z,6.90
2023-01-09T17:36:07.309Z,6.90
2023-01-09T17:37:07.420Z,6.87
2023-01-09T17:38:07.291Z,6.84
2023-01-09T17:39:07.254Z,6.84
2023-01-09T17:40:07.247Z,6.84
2023-01-09T17:41:07.252Z,6.83
2023-01-09T17:42:07.256Z,6.83
2023-01-09T17:43:07.230Z,6.79
2023-01-09T17:44:07.236Z,6.77
2023-01-09T17:45:07.185Z,6.76
2023-01-09T17:46:07.229Z,6.77
2023-01-09T17:47:07.254Z,6.79
2023-01-09T17:48:07.175Z,6.79
2023-01-09T17:49:07.120Z,6.77
2023-01-09T17:50:07.141Z,6.76
2023-01-09T17:51:07.097Z,6.73
2023-01-09T17:52:07.121Z,6.72
2023-01-09T17:53:07.065Z,6.72
2023-01-09T17:54:07.063Z,6.71
2023-01-09T17:55:07.045Z,6.69
2023-01-09T17:56:07.032Z,6.66
2023-01-09T17:57:07.046Z,6.63
2023-01-09T17:58:07.032Z,6.63
2023-01-09T17:59:07.003Z,6.63
2023-01-09T18:00:07.056Z,6.62
2023-01-09T18:01:07.016Z,6.59
2023-01-09T18:02:07.083Z,6.62
2023-01-09T18:03:06.933Z,6.63
2023-01-09T18:04:06.931Z,6.62
2023-01-09T18:05:06.912Z,6.59
2023-01-09T18:06:06.894Z,6.62
2023-01-09T18:07:06.909Z,6.62
2023-01-09T18:08:06.873Z,6.63
2023-01-09T18:09:06.904Z,6.62
2023-01-09T18:10:06.845Z,6.59
2023-01-09T18:11:06.841Z,6.58
2023-01-09T18:12:06.828Z,6.56
2023-01-09T18:13:06.818Z,6.54
2023-01-09T18:14:06.791Z,6.53
2023-01-09T18:15:06.785Z,6.51
2023-01-09T18:16:06.841Z,6.48
2023-01-09T18:17:06.786Z,6.48
2023-01-09T18:18:06.770Z,6.48
2023-01-09T18:19:06.776Z,6.50
2023-01-09T18:20:06.756Z,6.51
2023-01-09T18:21:06.703Z,6.51
2023-01-09T18:22:06.737Z,6.51
2023-01-09T18:23:06.678Z,6.53
2023-01-09T18:24:06.654Z,6.56
2023-01-09T18:25:06.654Z,6.54
2023-01-09T18:26:06.629Z,6.53
2023-01-09T18:27:06.650Z,6.54
2023-01-09T18:28:06.599Z,6.53
2023-01-09T18:29:06.590Z,6.53
2023-01-09T18:30:06.819Z,6.54
2023-01-09T18:31:06.574Z,6.53
2023-01-09T18:32:06.706Z,6.53
2023-01-09T18:33:06.547Z,6.51
2023-01-09T18:34:06.579Z,6.50